createdAt,value
2023-01-23T00:08:35.907Z,70.24
2023-01-23T00:18:40.149Z,70.25
2023-01-23T00:28:45.560Z,70.07
2023-01-23T00:38:49.797Z,69.16
2023-01-23T00:48:53.506Z,68.88
2023-01-23T00:58:58.343Z,68.88
2023-01-23T01:09:02.735Z,69.26
2023-01-23T01:19:06.583Z,69.44
2023-01-23T01:29:10.247Z,69.77
2023-01-23T01:39:13.897Z,69.71
2023-01-23T01:49:33.733Z,69.63
2023-01-23T02:00:11.093Z,69.31
2023-01-23T02:10:18.451Z,69.35
2023-01-23T02:20:28.973Z,69.22
2023-01-23T02:30:32.893Z,69.46
2023-01-23T02:40:42.491Z,69.39
2023-01-23T02:50:48.969Z,69.44
2023-01-23T03:00:52.845Z,69.59
2023-01-23T03:11:01.731Z,69.36
2023-01-23T03:21:08.087Z,69.28
2023-01-23T03:32:24.792Z,69.02
2023-01-23T03:42:34.981Z,68.91
2023-01-23T03:52:39.969Z,69.02
2023-01-23T04:02:46.972Z,68.74
2023-01-23T04:12:51.536Z,69.07
2023-01-23T04:22:55.594Z,68.86
2023-01-23T04:33:00.936Z,68.96
2023-01-23T04:43:08.579Z,69.06
2023-01-23T04:53:17.903Z,69.08
2023-01-23T05:03:22.708Z,69.06
2023-01-23T05:13:27.998Z,68.99
2023-01-23T05:23:31.918Z,69.28
2023-01-23T05:33:35.969Z,69.70
2023-01-23T05:43:41.968Z,69.58
2023-01-23T05:54:08.265Z,69.62
2023-01-23T06:04:16.430Z,70.00
2023-01-23T06:14:31.737Z,70.23
2023-01-23T06:24:35.785Z,70.25
2023-01-23T06:34:39.967Z,70.24
2023-01-23T06:44:48.199Z,69.97
2023-01-23T06:54:52.143Z,69.80
2023-01-23T07:04:56.462Z,70.11
2023-01-23T07:15:00.250Z,70.00
2023-01-23T07:25:12.347Z,69.76
2023-01-23T07:35:16.061Z,69.62
2023-01-23T07:45:19.810Z,69.63
2023-01-23T07:55:25.503Z,69.73
2023-01-23T08:05:30.534Z,69.76
2023-01-23T08:15:34.235Z,69.74
2023-01-23T08:25:39.523Z,69.97
2023-01-23T08:35:51.068Z,69.86
2023-01-23T08:45:59.555Z,69.56
2023-01-23T08:56:07.834Z,69.57
2023-01-23T09:06:13.071Z,68.83
2023-01-23T09:16:17.559Z,68.13
2023-01-23T09:26:21.342Z,67.50
2023-01-23T09:36:41.700Z,66.71
2023-01-23T09:46:55.380Z,66.26
2023-01-23T09:57:08.497Z,66.06
2023-01-23T10:07:28.811Z,65.37
2023-01-23T10:18:00.294Z,65.00
2023-01-23T10:28:22.855Z,64.50
2023-01-23T10:38:49.147Z,63.27
2023-01-23T11:00:02.615Z,61.90
2023-01-23T11:10:12.464Z,62.10
2023-01-23T11:20:32.289Z,63.07
2023-01-23T11:30:50.342Z,63.91
2023-01-23T11:40:54.057Z,64.48
2023-01-23T11:51:16.564Z,64.90
2023-01-23T12:01:32.524Z,65.78
2023-01-23T12:12:02.383Z,66.11
2023-01-23T12:22:16.613Z,66.24
2023-01-23T12:32:54.662Z,66.61
2023-01-23T12:43:14.768Z,66.53
2023-01-23T12:53:25.025Z,66.69
2023-01-23T13:03:46.619Z,67.00
2023-01-23T13:13:52.659Z,67.49
2023-01-23T13:24:47.005Z,67.54
2023-01-23T13:34:51.055Z,68.03
2023-01-23T13:45:21.459Z,68.11
2023-01-23T14:26:51.795Z,69.44
2023-01-23T14:37:04.740Z,69.58
2023-01-23T14:47:18.495Z,69.82
2023-01-23T14:57:24.639Z,70.24
2023-01-23T15:07:28.317Z,70.70
2023-01-23T15:17:33.477Z,70.83
2023-01-23T15:27:39.858Z,70.82
2023-01-23T15:37:49.880Z,70.90
2023-01-23T15:47:53.586Z,71.01
2023-01-23T15:57:57.262Z,71.34
2023-01-23T16:08:03.070Z,71.41
2023-01-23T16:18:06.892Z,71.63
2023-01-23T16:28:21.867Z,72.04
2023-01-23T16:38:30.333Z,72.52
2023-01-23T16:48:35.088Z,72.72
2023-01-23T16:58:41.273Z,72.79
2023-01-23T17:08:45.069Z,72.81
2023-01-23T17:18:50.568Z,72.81
2023-01-23T17:28:57.316Z,72.52
2023-01-23T17:39:01.923Z,72.52
2023-01-23T17:49:31.244Z,72.64
2023-01-23T17:59:35.064Z,72.49
2023-01-23T18:09:38.956Z,72.18
2023-01-23T18:19:43.327Z,72.07
2023-01-23T18:30:30.350Z,71.76
2023-01-23T18:41:10.821Z,71.74
2023-01-23T18:51:24.844Z,71.38
2023-01-23T19:01:40.985Z,71.26
2023-01-23T19:12:07.599Z,71.62
2023-01-23T19:22:17.748Z,71.91
2023-01-23T19:32:21.931Z,72.11
2023-01-23T19:42:35.916Z,72.21
2023-01-23T19:52:44.315Z,72.09
2023-01-23T20:02:48.289Z,71.83
2023-01-23T20:12:52.777Z,71.73
2023-01-23T20:22:56.573Z,71.65
2023-01-23T20:33:02.546Z,71.27
2023-01-23T20:43:06.456Z,71.32
2023-01-23T20:53:30.320Z,71.55
2023-01-23T21:03:39.200Z,71.87
2023-01-23T21:13:54.065Z,72.11
2023-01-23T21:23:57.816Z,72.18
2023-01-23T21:34:10.018Z,72.53
2023-01-23T21:44:14.292Z,72.79
2023-01-23T21:54:20.323Z,72.63
2023-01-23T22:04:24.223Z,72.75
2023-01-23T22:14:30.973Z,72.67
2023-01-23T22:24:34.545Z,72.45
2023-01-23T22:34:38.263Z,72.18
2023-01-23T22:44:43.525Z,71.76
2023-01-23T22:54:47.102Z,71.49
2023-01-23T23:04:51.895Z,71.09
2023-01-23T23:14:57.575Z,70.77
2023-01-23T23:25:01.143Z,70.49
2023-01-23T23:35:05.166Z,70.14
2023-01-23T23:45:09.361Z,69.71
2023-01-23T23:55:13.203Z,69.37
